• Join FlightAware (Why Join?)
  • Login
  • US Flag 
12:26AM EST


 

Airport Tracker/Info


-or-


 

Live Flight TrackerFlight Track Log ✈ AAY845 ✈ 21-Apr-2014 ✈ KSWF - KPIE

Flight Track Log - Related Links

Times and Time Zones

All times are in EDT time to prevent confusion due to time zone crossing. See the AAY845 flight status page for this flight to view local times or setup timezone preferences in your user account.

Time Position Orientation Groundspeed Altitude Reporting Facility
EDT Latitude Longitude Course Direction KTS MPH feet Rate Location/Type
07:57PM 41.5117 -74.0656 61° Northeast 174 200 2,100  Level Boston Center
07:58PM 41.5406 -73.9956 61° Northeast 223 257 4,100 1,440 Climbing Boston Center
07:59PM 41.5914 -74.0314 332° Northwest 251 289 5,100 480 Climbing Boston Center
08:00PM 41.6192 -74.1258 292° West 256 295 5,100 1,200 Level Boston Center
08:01PM 41.6494 -74.2103 296° West 256 295 7,600 2,520 Climbing Boston Center
08:02PM 41.6808 -74.2989 295° West 264 304 10,300 2,040 Climbing Boston Center
08:03PM 41.6808 -74.4058 270° West 316 364 11,800 1,680 Climbing Boston Center
08:04PM 41.6539 -74.5419 255° West 354 407 13,800 2,100 Climbing Boston Center
08:05PM 41.6281 -74.6797 256° West 378 435 16,200 2,160 Climbing Boston Center
08:06PM 41.6075 -74.7911 256° West 389 448 17,800 1,980 Climbing New York Center
08:07PM 41.5797 -74.9336 255° West 394 453 19,900 1,920 Climbing New York Center
08:08PM 41.5517 -75.0786 256° West 405 466 21,700 1,920 Climbing New York Center
08:09PM 41.5253 -75.2294 257° West 412 474 23,800 1,800 Climbing New York Center
08:10PM 41.4967 -75.3769 256° West 412 474 25,400 1,740 Climbing New York Center
08:11PM 41.4886 -75.5261 266° West 417 480 27,300 1,920 Climbing New York Center
08:12PM 41.5308 -75.6703 291° West 403 464 29,300 1,560 Climbing New York Center
08:13PM 41.5653 -75.7919 291° West 398 458 30,500 1,140 Climbing New York Center
08:14PM 41.6053 -75.9283 291° West 398 458 31,600 720 Climbing New York Center
08:15PM 41.6450 -76.0672 291° West 398 458 32,000 180 Climbing New York Center
08:16PM 41.6719 -76.2083 284° West 398 458 32,000  Level New York Center
08:17PM 41.6342 -76.3494 250° West 382 440 32,000  Level New York Center
08:18PM 41.5797 -76.4836 242° Southwest 389 448 32,000  Level New York Center
08:19PM 41.5214 -76.6144 239° Southwest 408 470 32,000  Level New York Center
08:20PM 41.4669 -76.7428 241° Southwest 413 475 32,000  Level New York Center
08:21PM 41.4083 -76.8731 239° Southwest 413 475 32,000  Level New York Center
08:22PM 41.3536 -77.0036 241° Southwest 408 470 32,000  Level New York Center
08:23PM 41.2969 -77.1308 239° Southwest 402 463 32,000  Level New York Center
08:24PM 41.2419 -77.2581 240° Southwest 402 463 32,000 420 Level New York Center
08:25PM 41.1614 -77.4419 240° Southwest 403 464 33,000 840 Climbing Cleveland Center
08:26PM 41.1058 -77.5656 239° Southwest 395 455 34,000 480 Climbing Cleveland Center
08:27PM 41.0508 -77.6914 240° Southwest 394 453 34,000  Level Cleveland Center
08:28PM 40.9956 -77.8147 239° Southwest 394 453 34,000  Level Cleveland Center
08:29PM 40.9394 -77.9392 239° Southwest 394 453 34,000  Level Cleveland Center
08:30PM 40.8750 -78.0592 235° Southwest 398 458 34,000  Level Cleveland Center
08:31PM 40.8017 -78.1717 229° Southwest 402 463 34,000  Level Cleveland Center
08:32PM 40.7169 -78.3053 230° Southwest 397 457 34,000  Level Cleveland Center
08:33PM 40.6442 -78.4156 229° Southwest 397 457 34,000  Level Cleveland Center
08:34PM 40.5728 -78.5275 230° Southwest 398 458 34,000  Level Cleveland Center
08:35PM 40.5008 -78.6378 229° Southwest 398 458 34,000  Level Cleveland Center
08:36PM 40.4297 -78.7472 230° Southwest 398 458 34,000  Level Cleveland Center
08:37PM 40.3575 -78.8556 229° Southwest 397 457 34,000  Level Cleveland Center
08:38PM 40.2697 -78.9894 229° Southwest 402 463 34,000  Level Cleveland Center
08:39PM 40.1958 -79.1003 229° Southwest 403 464 34,000  Level Cleveland Center
08:41PM 40.1233 -79.2103 229° Southwest 403 464 34,000  Level Cleveland Center
08:42PM 40.0456 -79.3261 229° Southwest 405 466 34,000  Level Cleveland Center
08:43PM 39.9725 -79.4358 229° Southwest 404 465 34,000  Level Cleveland Center
08:44PM 39.8994 -79.5450 229° Southwest 402 463 34,000  Level Cleveland Center
08:45PM 39.8250 -79.6544 228° Southwest 402 463 34,000  Level Cleveland Center
08:47PM 39.6328 -79.9378 229° Southwest 403 464 34,000  Level Indianapolis Center
08:48PM 39.5606 -80.0467 229° Southwest 402 463 34,000  Level Indianapolis Center
08:49PM 39.4858 -80.1536 228° Southwest 401 461 34,000  Level Indianapolis Center
08:50PM 39.4100 -80.2594 227° Southwest 401 461 34,000  Level Indianapolis Center
08:51PM 39.3339 -80.3661 227° Southwest 402 463 34,000  Level Indianapolis Center
08:52PM 39.2589 -80.4728 228° Southwest 402 463 34,000  Level Indianapolis Center
08:53PM 39.1825 -80.5778 227° Southwest 401 461 34,000  Level Indianapolis Center
08:54PM 39.0583 -80.6411 202° Southwest 404 465 34,000  Level Indianapolis Center
08:55PM 38.9478 -80.6769 194° South 405 466 34,000  Level Indianapolis Center
08:56PM 38.8381 -80.7142 195° South 405 466 34,000  Level Indianapolis Center
08:57PM 38.7272 -80.7508 194° South 405 466 34,000  Level Indianapolis Center
08:58PM 38.6167 -80.7881 195° South 405 466 34,000  Level Indianapolis Center
08:59PM 38.5067 -80.8250 195° South 406 467 34,000  Level Indianapolis Center
09:00PM 38.3961 -80.8606 194° South 406 467 34,000  Level Indianapolis Center
09:01PM 38.2858 -80.8978 195° South 406 467 34,000  Level Indianapolis Center
09:03PM 38.1739 -80.9344 194° South 406 467 34,000  Level Indianapolis Center
09:04PM 38.0631 -80.9708 194° South 408 470 34,000  Level Indianapolis Center
09:05PM 37.9519 -81.0075 195° South 409 471 34,000  Level Indianapolis Center
09:06PM 37.8192 -81.0503 194° South 409 471 34,000  Level Indianapolis Center
09:07PM 37.7114 -81.0864 195° South 409 471 34,000  Level Indianapolis Center
09:08PM 37.6044 -81.1214 195° South 409 471 34,000  Level Indianapolis Center
09:09PM 37.4992 -81.1544 194° South 408 470 34,000  Level Indianapolis Center
09:10PM 37.3742 -81.1958 195° South 402 463 34,000  Level Indianapolis Center
09:11PM 37.2608 -81.2319 194° South 402 463 34,000  Level Indianapolis Center
09:12PM 37.1508 -81.2669 194° South 402 463 34,000  Level Indianapolis Center
09:13PM 37.0536 -81.3003 195° South 407 468 34,000  Level Atlanta Center
09:14PM 36.9419 -81.3353 194° South 415 478 34,000  Level Atlanta Center
09:15PM 36.8322 -81.3700 194° South 410 472 34,000  Level Atlanta Center
09:16PM 36.7286 -81.4022 194° South 410 472 34,000  Level Atlanta Center
09:17PM 36.6189 -81.4367 194° South 405 466 34,000  Level Atlanta Center
09:18PM 36.5089 -81.4714 194° South 410 472 34,000  Level Atlanta Center
09:19PM 36.4014 -81.5058 194° South 410 472 34,000  Level Atlanta Center
09:20PM 36.2914 -81.5400 194° South 410 472 34,000  Level Atlanta Center
09:21PM 36.1794 -81.5769 195° South 410 472 34,000  Level Atlanta Center
09:22PM 36.0739 -81.6058 192° South 410 472 34,000  Level Atlanta Center
09:23PM 35.9619 -81.6453 196° South 410 472 34,000  Level Atlanta Center
09:24PM 35.8500 -81.6817 195° South 415 478 34,000  Level Atlanta Center
09:25PM 35.7422 -81.7156 194° South 410 472 34,000  Level Atlanta Center
09:26PM 35.6322 -81.7494 194° South 410 472 34,000  Level Atlanta Center
09:27PM 35.5203 -81.7831 194° South 410 472 34,000  Level Atlanta Center
09:28PM 35.4103 -81.8167 194° South 410 472 34,000  Level Atlanta Center
09:29PM 35.3044 -81.8500 194° South 410 472 34,000  Level Atlanta Center
09:30PM 35.1944 -81.8808 193° South 410 472 34,000  Level Atlanta Center
09:31PM 35.0822 -81.9169 195° South 410 472 34,000  Level Atlanta Center
09:32PM 34.9722 -81.9450 192° South 410 472 34,000  Level Atlanta Center
09:33PM 34.8597 -81.9581 185° South 410 472 34,000  Level Atlanta Center
09:34PM 34.7475 -81.9811 190° South 410 472 34,000  Level Atlanta Center
09:35PM 34.6581 -81.9958 188° South 410 472 34,000  Level Atlanta Center
09:36PM 34.5206 -82.0194 188° South 410 472 34,000  Level Atlanta Center
09:37PM 34.4103 -82.0372 188° South 410 472 34,000  Level Atlanta Center
09:38PM 34.2939 -82.0600 189° South 410 472 34,000  Level Atlanta Center
09:39PM 34.1814 -82.0778 187° South 410 472 34,000  Level Atlanta Center
09:40PM 34.0669 -82.1003 189° South 410 472 34,000  Level Atlanta Center
09:41PM 33.9525 -82.1181 187° South 415 478 34,000  Level Atlanta Center
09:42PM 33.8358 -82.1381 188° South 420 483 34,000  Level Atlanta Center
09:43PM 33.7194 -82.1583 188° South 425 489 34,000  Level Atlanta Center
09:44PM 33.6047 -82.1781 188° South 425 489 34,000  Level Atlanta Center
09:45PM 33.4883 -82.1981 188° South 425 489 34,000  Level Atlanta Center
09:46PM 33.3736 -82.2156 187° South 425 489 34,000  Level Atlanta Center
09:47PM 33.2572 -82.2353 188° South 425 489 34,000  Level Atlanta Center
09:48PM 33.1425 -82.2550 188° South 425 489 34,000  Level Atlanta Center
09:49PM 33.0258 -82.2722 187° South 425 489 34,000  Level Atlanta Center
09:50PM 32.8250 -82.3067 188° South 407 468 34,000  Level Jacksonville Center
09:51PM 32.7081 -82.3247 187° South 412 474 34,000  Level Jacksonville Center
09:52PM 32.5953 -82.3428 188° South 412 474 34,000  Level Jacksonville Center
09:53PM 32.4806 -82.3581 186° South 412 474 34,000  Level Jacksonville Center
09:54PM 32.3575 -82.3811 189° South 412 474 34,000  Level Jacksonville Center
09:55PM 32.2408 -82.3989 187° South 412 474 34,000  Level Jacksonville Center
09:56PM 32.1217 -82.4167 187° South 422 486 34,000  Level Jacksonville Center
09:57PM 32.0092 -82.4344 188° South 422 486 34,000  Level Jacksonville Center
09:58PM 31.8922 -82.4472 185° South 422 486 34,000  Level Jacksonville Center
09:59PM 31.7711 -82.4428 178° South 427 491 34,000  Level Jacksonville Center
10:00PM 31.6647 -82.4411 179° South 427 491 34,000  Level Jacksonville Center
10:01PM 31.5456 -82.4319 176° South 427 491 34,000  Level Jacksonville Center
10:02PM 31.4267 -82.4300 179° South 427 491 34,000  Level Jacksonville Center
10:03PM 31.2931 -82.4258 178° South 432 497 34,000  Level Jacksonville Center
10:04PM 31.1719 -82.4217 178° South 437 503 34,000  Level Jacksonville Center
10:05PM 31.0528 -82.4197 179° South 437 503 34,000 -60 Level Jacksonville Center
10:06PM 30.9317 -82.4131 177° South 437 503 33,900  Descending Jacksonville Center
10:07PM 30.8125 -82.4089 178° South 437 503 34,000  Climbing Jacksonville Center
10:08PM 30.6936 -82.4047 178° South 437 503 34,000 -60 Level Jacksonville Center
10:09PM 30.5744 -82.3981 177° South 437 503 33,900  Descending Jacksonville Center
10:10PM 30.4661 -82.3961 179° South 437 503 34,000  Climbing Jacksonville Center
10:11PM 30.3469 -82.3894 177° South 437 503 34,000 -60 Level Jacksonville Center
10:12PM 30.2258 -82.3853 178° South 437 503 33,900 -540 Descending Jacksonville Center
10:13PM 30.1069 -82.3811 178° South 437 503 33,000 -960 Descending Jacksonville Center
10:14PM 29.9878 -82.3722 176° South 437 503 32,000 -1,020 Descending Jacksonville Center
10:15PM 29.8644 -82.3681 178° South 442 509 31,000 -1,200 Descending Jacksonville Center
10:16PM 29.7433 -82.3639 178° South 442 509 29,700 -1,680 Descending Jacksonville Center
10:17PM 29.6244 -82.3597 178° South 442 509 27,700 -1,980 Descending Jacksonville Center
10:18PM 29.5075 -82.3508 176° South 436 502 25,800 -1,620 Descending Jacksonville Center
10:19PM 29.3883 -82.3372 174° South 418 481 24,500 -1,680 Descending Jacksonville Center
10:20PM 29.2819 -82.3236 174° South 399 459 22,500 -2,220 Descending Jacksonville Center
10:21PM 29.1714 -82.3100 174° South 394 453 20,100 -2,400 Descending Jacksonville Center
10:22PM 29.0647 -82.2986 175° South 394 453 17,800 -2,400 Descending Jacksonville Center
10:23PM 28.9583 -82.2850 174° South 389 448 15,400 -1,800 Descending Jacksonville Center
10:25PM 28.7833 -82.2667 175° South 349 402 13,000 -900 Descending Tampa TRACON
10:26PM 28.7000 -82.2500 170° South 312 359 13,000 -420 Level Tampa TRACON
10:27PM 28.6000 -82.2500 180° South 328 377 12,200 -960 Descending Tampa TRACON
10:28PM 28.5167 -82.2500 180° South 338 389 11,100 -600 Descending Tampa TRACON
10:29PM 28.4333 -82.2833 199° South 305 351 11,000 -240 Descending Tampa TRACON
10:30PM 28.3333 -82.3167 196° South 303 349 10,600 -720 Descending Tampa TRACON
10:31PM 28.2667 -82.3333 192° South 291 335 9,600 -1,440 Descending Tampa TRACON
10:32PM 28.1833 -82.3667 199° South 281 323 7,900 -1,560 Descending Tampa TRACON
10:33PM 28.1167 -82.3833 192° South 281 323 6,500 -1,380 Descending Tampa TRACON
10:34PM 28.0500 -82.4167 204° Southwest 268 308 5,300 -1,380 Descending Tampa TRACON
10:35PM 28.0000 -82.4667 221° Southwest 253 291 4,100 -1,320 Descending Tampa TRACON
10:36PM 27.9500 -82.5000 210° Southwest 234 269 2,900 -1,140 Descending Tampa TRACON
10:37PM 27.9000 -82.5333 211° Southwest 205 236 1,900 -600 Descending Tampa TRACON
10:38PM 27.8500 -82.5667 211° Southwest 185 213 1,700 -180 Descending Tampa TRACON
10:39PM 27.8333 -82.6167 249° West 164 189 1,600 -180 Descending Tampa TRACON
10:40PM 27.8333 -82.6667 270° West 154 177 1,400 -480 Descending Tampa TRACON
10:41PM 27.8667 -82.6833 336° Northwest 131 151 600 -780 Descending Tampa TRACON
10:43PM 27.9000 -82.6833 310° West  Level FlightAware Approximate